Time,TemperatureF,DewpointF,PressureIn,WindDirection,WindDirectionDegrees,WindSpeedMPH,WindSpeedGustMPH,Humidity,HourlyPrecipIn,Conditions,Clouds,dailyrainin,SoftwareType,DateUTC
2013-08-16 00:00:00,61.8,57.6,29.91,South,180,1.0,7.0,86,0.00,,,-99.99,WeatherLink 5.6,2013-08-16 04:00:00,
2013-08-16 00:30:00,61.0,57.1,29.92,South,180,0.0,3.0,87,0.00,,,-99.99,WeatherLink 5.6,2013-08-16 04:30:00,
2013-08-16 01:00:00,59.9,57.3,29.92,South,180,2.0,9.0,91,0.00,,,-99.99,WeatherLink 5.6,2013-08-16 05:00:00,
2013-08-16 01:30:00,59.1,56.5,29.91,South,180,2.0,6.0,91,0.00,,,-99.99,WeatherLink 5.6,2013-08-16 05:30:00,
2013-08-16 02:00:00,58.7,56.4,29.91,South,180,2.0,10.0,92,0.00,,,-99.99,WeatherLink 5.6,2013-08-16 06:00:00,
2013-08-16 02:30:00,58.4,56.1,29.90,South,180,2.0,10.0,92,0.00,,,-99.99,WeatherLink 5.6,2013-08-16 06:30:00,
2013-08-16 03:00:00,57.9,55.3,29.90,South,180,3.0,10.0,91,0.00,,,-99.99,WeatherLink 5.6,2013-08-16 07:00:00,
2013-08-16 03:30:00,57.7,54.5,29.90,South,180,3.0,9.0,89,0.00,,,-99.99,WeatherLink 5.6,2013-08-16 07:30:00,
2013-08-16 04:00:00,57.7,53.9,29.90,South,180,3.0,12.0,87,0.00,,,-99.99,WeatherLink 5.6,2013-08-16 08:00:00,
2013-08-16 04:30:00,57.0,53.5,29.90,South,180,1.0,6.0,88,0.00,,,-99.99,WeatherLink 5.6,2013-08-16 08:30:00,
2013-08-16 05:00:00,55.7,53.4,29.90,North,-999,0.0,0.0,92,0.00,,,-99.99,WeatherLink 5.6,2013-08-16 09:00:00,
2013-08-16 05:30:00,55.7,53.4,29.91,SSW,202,0.0,1.0,92,0.00,,,-99.99,WeatherLink 5.6,2013-08-16 09:30:00,
2013-08-16 06:00:00,56.3,53.7,29.92,South,180,2.0,6.0,91,0.00,,,-99.99,WeatherLink 5.6,2013-08-16 10:00:00,
2013-08-16 06:30:00,56.4,53.2,29.92,South,180,2.0,6.0,89,0.00,,,-99.99,WeatherLink 5.6,2013-08-16 10:30:00,
2013-08-16 07:00:00,57.1,53.3,29.93,South,180,1.0,6.0,87,0.00,,,-99.99,WeatherLink 5.6,2013-08-16 11:00:00,
2013-08-16 07:30:00,58.2,54.0,29.94,South,180,3.0,7.0,86,0.00,,,-99.99,WeatherLink 5.6,2013-08-16 11:30:00,
2013-08-16 08:00:00,59.0,55.1,29.94,South,180,1.0,11.0,87,0.00,,,-99.99,WeatherLink 5.6,2013-08-16 12:00:00,
2013-08-16 08:30:00,60.2,55.7,29.94,South,180,3.0,14.0,85,0.00,,,-99.99,WeatherLink 5.6,2013-08-16 12:30:00,
2013-08-16 09:00:00,61.7,57.1,29.94,South,180,2.0,10.0,85,0.00,,,-99.99,WeatherLink 5.6,2013-08-16 13:00:00,
2013-08-16 09:30:00,62.4,55.8,29.94,SE,135,2.0,10.0,79,0.00,,,-99.99,WeatherLink 5.6,2013-08-16 13:30:00,
2013-08-16 10:00:00,65.9,58.8,29.92,SE,135,0.0,6.0,78,0.00,,,-99.99,WeatherLink 5.6,2013-08-16 14:00:00,
2013-08-16 10:30:00,65.3,57.9,29.93,SE,135,3.0,10.0,77,0.00,,,-99.99,WeatherLink 5.6,2013-08-16 14:30:00,
2013-08-16 11:00:00,67.1,59.3,29.94,SSE,157,1.0,6.0,76,0.00,,,-99.99,WeatherLink 5.6,2013-08-16 15:00:00,
2013-08-16 11:30:00,69.5,60.1,29.93,SSE,157,1.0,9.0,72,0.00,,,-99.99,WeatherLink 5.6,2013-08-16 15:30:00,
2013-08-16 12:00:00,70.4,59.7,29.93,South,180,1.0,8.0,69,0.00,,,-99.99,WeatherLink 5.6,2013-08-16 16:00:00,
2013-08-16 12:30:00,71.3,61.0,29.93,SSE,157,1.0,6.0,70,0.00,,,-99.99,WeatherLink 5.6,2013-08-16 16:30:00,
2013-08-16 13:00:00,72.0,61.7,29.92,South,180,0.0,3.0,70,0.00,,,-99.99,WeatherLink 5.6,2013-08-16 17:00:00,
2013-08-16 13:30:00,73.6,62.4,29.92,SSE,157,1.0,7.0,68,0.00,,,-99.99,WeatherLink 5.6,2013-08-16 17:30:00,
2013-08-16 14:00:00,72.6,61.4,29.91,East,90,0.0,3.0,68,0.00,,,-99.99,WeatherLink 5.6,2013-08-16 18:00:00,
2013-08-16 14:30:00,72.8,59.5,29.92,NE,45,1.0,10.0,63,0.00,,,-99.99,WeatherLink 5.6,2013-08-16 18:30:00,
2013-08-16 15:00:00,73.5,61.9,29.91,NW,315,1.0,7.0,67,0.00,,,-99.99,WeatherLink 5.6,2013-08-16 19:00:00,
2013-08-16 15:30:00,72.9,61.3,29.90,NE,45,0.0,6.0,67,0.00,,,-99.99,WeatherLink 5.6,2013-08-16 19:30:00,
2013-08-16 16:00:00,73.3,60.4,29.90,NE,45,0.0,6.0,64,0.00,,,-99.99,WeatherLink 5.6,2013-08-16 20:00:00,
2013-08-16 16:30:00,72.8,60.8,29.90,East,90,1.0,6.0,66,0.00,,,-99.99,WeatherLink 5.6,2013-08-16 20:30:00,
2013-08-16 17:00:00,71.2,60.9,29.91,NE,45,0.0,3.0,70,0.00,,,-99.99,WeatherLink 5.6,2013-08-16 21:00:00,
2013-08-16 17:30:00,72.6,61.0,29.90,NE,45,0.0,3.0,67,0.00,,,-99.99,WeatherLink 5.6,2013-08-16 21:30:00,
2013-08-16 18:00:00,72.4,62.1,29.91,NNE,22,0.0,5.0,70,0.00,,,-99.99,WeatherLink 5.6,2013-08-16 22:00:00,
2013-08-16 18:30:00,71.0,61.1,29.90,NE,45,1.0,5.0,71,0.00,,,-99.99,WeatherLink 5.6,2013-08-16 22:30:00,
2013-08-16 19:00:00,70.1,61.4,29.91,NE,45,0.0,6.0,74,0.00,,,-99.99,WeatherLink 5.6,2013-08-16 23:00:00,
2013-08-16 19:30:00,68.7,60.5,29.91,North,0,0.0,2.0,75,0.00,,,-99.99,WeatherLink 5.6,2013-08-16 23:30:00,
2013-08-16 20:00:00,67.9,60.4,29.92,North,-999,0.0,0.0,77,0.00,,,-99.99,WeatherLink 5.6,2013-08-17 00:00:00,
2013-08-16 20:30:00,67.7,60.2,29.92,North,0,0.0,1.0,77,0.00,,,-99.99,WeatherLink 5.6,2013-08-17 00:30:00,
2013-08-16 21:00:00,67.0,60.3,29.93,North,-999,0.0,0.0,79,0.00,,,-99.99,WeatherLink 5.6,2013-08-17 01:00:00,
2013-08-16 21:30:00,66.5,59.8,29.93,South,180,0.0,4.0,79,0.00,,,-99.99,WeatherLink 5.6,2013-08-17 01:30:00,
2013-08-16 22:00:00,66.6,58.1,29.94,SE,135,3.0,9.0,74,0.00,,,-99.99,WeatherLink 5.6,2013-08-17 02:00:00,
2013-08-16 22:30:00,66.0,57.8,29.94,SE,135,3.0,13.0,75,0.00,,,-99.99,WeatherLink 5.6,2013-08-17 02:30:00,
2013-08-16 23:00:00,64.8,57.8,29.94,SSE,157,2.0,9.0,78,0.00,,,-99.99,WeatherLink 5.6,2013-08-17 03:00:00,
2013-08-16 23:30:00,63.6,57.3,29.94,South,180,0.0,5.0,80,0.00,,,-99.99,WeatherLink 5.6,2013-08-17 03:30:00,